sensor_id;sensor_type;location;lat;lon;timestamp;temperature;humidity
26035;DHT22;13809;48.632;11.576;2023-11-22T00:01:20;11.30;43.70
26035;DHT22;13809;48.632;11.576;2023-11-22T00:06:24;11.20;43.10
26035;DHT22;13809;48.632;11.576;2023-11-22T00:11:27;11.10;43.10
26035;DHT22;13809;48.632;11.576;2023-11-22T00:16:33;11.00;43.20
26035;DHT22;13809;48.632;11.576;2023-11-22T00:21:39;10.90;43.20
26035;DHT22;13809;48.632;11.576;2023-11-22T00:26:42;10.80;43.10
26035;DHT22;13809;48.632;11.576;2023-11-22T00:31:46;10.70;42.90
26035;DHT22;13809;48.632;11.576;2023-11-22T00:36:50;10.60;43.10
26035;DHT22;13809;48.632;11.576;2023-11-22T00:41:53;10.50;43.20
26035;DHT22;13809;48.632;11.576;2023-11-22T00:46:58;10.30;42.90
26035;DHT22;13809;48.632;11.576;2023-11-22T00:52:02;10.20;42.80
26035;DHT22;13809;48.632;11.576;2023-11-22T00:57:05;10.10;42.90
26035;DHT22;13809;48.632;11.576;2023-11-22T01:02:11;10.00;42.90
26035;DHT22;13809;48.632;11.576;2023-11-22T01:07:14;9.90;43.70
26035;DHT22;13809;48.632;11.576;2023-11-22T01:12:17;9.80;43.80
26035;DHT22;13809;48.632;11.576;2023-11-22T01:17:23;9.70;43.90
26035;DHT22;13809;48.632;11.576;2023-11-22T01:22:26;9.70;44.00
26035;DHT22;13809;48.632;11.576;2023-11-22T01:27:30;9.60;43.90
26035;DHT22;13809;48.632;11.576;2023-11-22T01:32:34;9.60;44.10
26035;DHT22;13809;48.632;11.576;2023-11-22T01:37:38;9.60;44.10
26035;DHT22;13809;48.632;11.576;2023-11-22T01:42:41;9.60;44.20
26035;DHT22;13809;48.632;11.576;2023-11-22T01:47:46;9.60;44.10
26035;DHT22;13809;48.632;11.576;2023-11-22T01:52:49;9.60;44.00
26035;DHT22;13809;48.632;11.576;2023-11-22T01:57:53;9.50;44.00
26035;DHT22;13809;48.632;11.576;2023-11-22T02:02:57;9.50;44.10
26035;DHT22;13809;48.632;11.576;2023-11-22T02:08:02;9.50;44.00
26035;DHT22;13809;48.632;11.576;2023-11-22T02:13:06;9.40;42.80
26035;DHT22;13809;48.632;11.576;2023-11-22T02:18:10;9.20;42.70
26035;DHT22;13809;48.632;11.576;2023-11-22T02:23:16;9.10;42.80
26035;DHT22;13809;48.632;11.576;2023-11-22T02:28:20;8.90;42.70
26035;DHT22;13809;48.632;11.576;2023-11-22T02:33:24;8.80;42.90
26035;DHT22;13809;48.632;11.576;2023-11-22T02:38:29;8.80;43.10
26035;DHT22;13809;48.632;11.576;2023-11-22T02:43:32;8.70;42.90
26035;DHT22;13809;48.632;11.576;2023-11-22T02:48:35;8.60;43.40
26035;DHT22;13809;48.632;11.576;2023-11-22T02:53:41;8.60;43.60
26035;DHT22;13809;48.632;11.576;2023-11-22T02:58:45;8.60;43.80
26035;DHT22;13809;48.632;11.576;2023-11-22T03:03:48;8.60;43.70
26035;DHT22;13809;48.632;11.576;2023-11-22T03:08:53;8.60;43.80
26035;DHT22;13809;48.632;11.576;2023-11-22T03:13:56;8.70;43.80
26035;DHT22;13809;48.632;11.576;2023-11-22T03:19:01;8.70;43.70
26035;DHT22;13809;48.632;11.576;2023-11-22T03:24:06;8.70;43.70
26035;DHT22;13809;48.632;11.576;2023-11-22T03:29:10;8.70;43.80
26035;DHT22;13809;48.632;11.576;2023-11-22T03:34:14;8.70;43.80
26035;DHT22;13809;48.632;11.576;2023-11-22T03:39:18;8.80;43.70
26035;DHT22;13809;48.632;11.576;2023-11-22T03:44:22;8.90;43.80
26035;DHT22;13809;48.632;11.576;2023-11-22T03:49:25;8.80;43.70
26035;DHT22;13809;48.632;11.576;2023-11-22T03:54:29;8.70;43.20
26035;DHT22;13809;48.632;11.576;2023-11-22T03:59:34;8.70;43.00
26035;DHT22;13809;48.632;11.576;2023-11-22T04:04:38;8.60;43.10
26035;DHT22;13809;48.632;11.576;2023-11-22T04:09:44;8.60;43.00
26035;DHT22;13809;48.632;11.576;2023-11-22T04:14:47;8.50;43.00
26035;DHT22;13809;48.632;11.576;2023-11-22T04:19:51;8.40;43.00
26035;DHT22;13809;48.632;11.576;2023-11-22T04:24:56;8.30;42.90
26035;DHT22;13809;48.632;11.576;2023-11-22T04:30:00;8.20;42.90
26035;DHT22;13809;48.632;11.576;2023-11-22T04:35:03;8.20;43.00
26035;DHT22;13809;48.632;11.576;2023-11-22T04:40:09;8.10;42.90
26035;DHT22;13809;48.632;11.576;2023-11-22T04:45:13;8.10;42.80
26035;DHT22;13809;48.632;11.576;2023-11-22T04:50:16;8.00;43.10
26035;DHT22;13809;48.632;11.576;2023-11-22T04:55:21;8.00;43.20
26035;DHT22;13809;48.632;11.576;2023-11-22T05:00:25;8.00;43.10
26035;DHT22;13809;48.632;11.576;2023-11-22T05:05:28;8.00;43.10
26035;DHT22;13809;48.632;11.576;2023-11-22T05:10:33;8.00;43.10
26035;DHT22;13809;48.632;11.576;2023-11-22T05:15:37;8.00;42.90
26035;DHT22;13809;48.632;11.576;2023-11-22T05:20:40;7.90;42.90
26035;DHT22;13809;48.632;11.576;2023-11-22T05:25:44;7.90;43.10
26035;DHT22;13809;48.632;11.576;2023-11-22T05:30:48;7.80;43.10
26035;DHT22;13809;48.632;11.576;2023-11-22T05:35:51;7.80;43.20
26035;DHT22;13809;48.632;11.576;2023-11-22T05:40:55;7.80;43.30
26035;DHT22;13809;48.632;11.576;2023-11-22T05:45:59;7.70;43.20
26035;DHT22;13809;48.632;11.576;2023-11-22T05:51:02;7.70;43.10
26035;DHT22;13809;48.632;11.576;2023-11-22T05:56:08;7.60;43.00
26035;DHT22;13809;48.632;11.576;2023-11-22T06:01:11;7.50;42.70
26035;DHT22;13809;48.632;11.576;2023-11-22T06:06:14;7.40;42.70
26035;DHT22;13809;48.632;11.576;2023-11-22T06:11:20;7.40;43.10
26035;DHT22;13809;48.632;11.576;2023-11-22T06:16:24;7.40;43.00
26035;DHT22;13809;48.632;11.576;2023-11-22T06:21:27;7.30;42.80
26035;DHT22;13809;48.632;11.576;2023-11-22T06:26:31;7.30;42.90
26035;DHT22;13809;48.632;11.576;2023-11-22T06:31:35;7.30;42.80
26035;DHT22;13809;48.632;11.576;2023-11-22T06:36:38;7.40;43.00
26035;DHT22;13809;48.632;11.576;2023-11-22T06:41:42;7.40;42.90
26035;DHT22;13809;48.632;11.576;2023-11-22T06:46:46;7.40;42.70
26035;DHT22;13809;48.632;11.576;2023-11-22T06:51:49;7.40;43.00
26035;DHT22;13809;48.632;11.576;2023-11-22T06:56:55;7.40;42.50
26035;DHT22;13809;48.632;11.576;2023-11-22T07:01:58;7.40;42.00
26035;DHT22;13809;48.632;11.576;2023-11-22T07:07:02;7.30;42.30
26035;DHT22;13809;48.632;11.576;2023-11-22T07:12:07;7.20;42.20
26035;DHT22;13809;48.632;11.576;2023-11-22T07:17:11;7.20;42.20
26035;DHT22;13809;48.632;11.576;2023-11-22T07:22:14;7.20;42.40
26035;DHT22;13809;48.632;11.576;2023-11-22T07:27:23;7.10;42.10
26035;DHT22;13809;48.632;11.576;2023-11-22T07:32:27;7.20;42.30
26035;DHT22;13809;48.632;11.576;2023-11-22T07:37:32;7.10;42.30
26035;DHT22;13809;48.632;11.576;2023-11-22T07:42:36;7.20;42.40
26035;DHT22;13809;48.632;11.576;2023-11-22T07:47:39;7.20;42.60
26035;DHT22;13809;48.632;11.576;2023-11-22T07:52:43;7.20;42.60
26035;DHT22;13809;48.632;11.576;2023-11-22T07:57:48;7.20;42.50
26035;DHT22;13809;48.632;11.576;2023-11-22T08:02:52;7.20;42.20
26035;DHT22;13809;48.632;11.576;2023-11-22T08:07:56;7.10;42.20
26035;DHT22;13809;48.632;11.576;2023-11-22T08:13:01;7.10;42.30
26035;DHT22;13809;48.632;11.576;2023-11-22T08:18:05;7.10;42.30
26035;DHT22;13809;48.632;11.576;2023-11-22T08:23:09;7.10;42.40
26035;DHT22;13809;48.632;11.576;2023-11-22T08:28:16;7.10;42.30
26035;DHT22;13809;48.632;11.576;2023-11-22T08:33:20;7.10;42.30
26035;DHT22;13809;48.632;11.576;2023-11-22T08:38:24;7.10;42.60
26035;DHT22;13809;48.632;11.576;2023-11-22T08:43:30;7.20;42.30
26035;DHT22;13809;48.632;11.576;2023-11-22T08:48:34;7.10;42.00
26035;DHT22;13809;48.632;11.576;2023-11-22T08:53:41;7.10;42.30
26035;DHT22;13809;48.632;11.576;2023-11-22T08:58:48;7.10;42.30
26035;DHT22;13809;48.632;11.576;2023-11-22T09:03:51;7.10;42.10
26035;DHT22;13809;48.632;11.576;2023-11-22T09:08:54;7.20;42.40
26035;DHT22;13809;48.632;11.576;2023-11-22T09:13:59;7.20;42.50
26035;DHT22;13809;48.632;11.576;2023-11-22T09:19:06;7.20;42.50
26035;DHT22;13809;48.632;11.576;2023-11-22T09:24:09;7.20;42.50
26035;DHT22;13809;48.632;11.576;2023-11-22T09:29:14;7.20;42.50
26035;DHT22;13809;48.632;11.576;2023-11-22T09:34:17;7.30;42.50
26035;DHT22;13809;48.632;11.576;2023-11-22T09:39:21;7.30;42.30
26035;DHT22;13809;48.632;11.576;2023-11-22T09:44:28;7.30;42.20
26035;DHT22;13809;48.632;11.576;2023-11-22T09:49:32;7.30;42.20
26035;DHT22;13809;48.632;11.576;2023-11-22T09:54:37;7.30;42.20
26035;DHT22;13809;48.632;11.576;2023-11-22T09:59:43;7.30;42.10
26035;DHT22;13809;48.632;11.576;2023-11-22T10:04:47;7.30;42.00
26035;DHT22;13809;48.632;11.576;2023-11-22T10:09:50;7.30;42.10
26035;DHT22;13809;48.632;11.576;2023-11-22T10:15:11;7.30;42.00
26035;DHT22;13809;48.632;11.576;2023-11-22T10:20:14;7.40;41.60
26035;DHT22;13809;48.632;11.576;2023-11-22T10:25:18;7.40;42.30
26035;DHT22;13809;48.632;11.576;2023-11-22T10:30:22;7.40;42.20
26035;DHT22;13809;48.632;11.576;2023-11-22T10:35:26;7.40;42.20
26035;DHT22;13809;48.632;11.576;2023-11-22T10:40:29;7.50;42.40
26035;DHT22;13809;48.632;11.576;2023-11-22T10:45:34;7.50;42.30
26035;DHT22;13809;48.632;11.576;2023-11-22T10:50:39;7.50;42.10
26035;DHT22;13809;48.632;11.576;2023-11-22T10:55:45;7.60;42.20
26035;DHT22;13809;48.632;11.576;2023-11-22T11:00:50;7.60;42.10
26035;DHT22;13809;48.632;11.576;2023-11-22T11:05:57;7.70;42.40
26035;DHT22;13809;48.632;11.576;2023-11-22T11:11:01;7.70;41.80
26035;DHT22;13809;48.632;11.576;2023-11-22T11:16:07;7.80;42.00
26035;DHT22;13809;48.632;11.576;2023-11-22T11:21:11;7.70;41.70
26035;DHT22;13809;48.632;11.576;2023-11-22T11:26:16;7.70;42.00
26035;DHT22;13809;48.632;11.576;2023-11-22T11:31:22;7.70;42.10
26035;DHT22;13809;48.632;11.576;2023-11-22T11:36:27;7.80;42.00
26035;DHT22;13809;48.632;11.576;2023-11-22T11:41:32;7.80;42.40
26035;DHT22;13809;48.632;11.576;2023-11-22T11:46:38;7.90;42.30
26035;DHT22;13809;48.632;11.576;2023-11-22T11:51:41;7.90;41.80
26035;DHT22;13809;48.632;11.576;2023-11-22T11:56:45;8.00;41.80
26035;DHT22;13809;48.632;11.576;2023-11-22T12:01:54;8.00;41.80
26035;DHT22;13809;48.632;11.576;2023-11-22T12:06:59;8.00;41.50
26035;DHT22;13809;48.632;11.576;2023-11-22T12:12:03;8.00;41.50
26035;DHT22;13809;48.632;11.576;2023-11-22T12:17:09;7.90;41.50
26035;DHT22;13809;48.632;11.576;2023-11-22T12:22:12;7.90;41.60
26035;DHT22;13809;48.632;11.576;2023-11-22T12:27:18;7.90;41.60
26035;DHT22;13809;48.632;11.576;2023-11-22T12:32:24;7.90;41.50
26035;DHT22;13809;48.632;11.576;2023-11-22T12:37:28;7.90;41.30
26035;DHT22;13809;48.632;11.576;2023-11-22T12:42:32;7.90;41.60
26035;DHT22;13809;48.632;11.576;2023-11-22T12:47:37;7.90;41.60
26035;DHT22;13809;48.632;11.576;2023-11-22T12:52:42;7.90;41.60
26035;DHT22;13809;48.632;11.576;2023-11-22T12:57:56;7.90;41.70
26035;DHT22;13809;48.632;11.576;2023-11-22T13:03:02;8.00;41.20
26035;DHT22;13809;48.632;11.576;2023-11-22T13:08:07;8.00;41.60
26035;DHT22;13809;48.632;11.576;2023-11-22T13:13:10;8.00;41.70
26035;DHT22;13809;48.632;11.576;2023-11-22T13:18:15;8.00;41.70
26035;DHT22;13809;48.632;11.576;2023-11-22T13:23:19;8.00;41.30
26035;DHT22;13809;48.632;11.576;2023-11-22T13:28:22;8.00;41.60
26035;DHT22;13809;48.632;11.576;2023-11-22T13:33:28;8.00;41.60
26035;DHT22;13809;48.632;11.576;2023-11-22T13:38:31;8.00;41.50
26035;DHT22;13809;48.632;11.576;2023-11-22T13:43:35;8.00;41.60
26035;DHT22;13809;48.632;11.576;2023-11-22T13:48:40;7.90;41.60
26035;DHT22;13809;48.632;11.576;2023-11-22T13:53:43;8.00;42.30
26035;DHT22;13809;48.632;11.576;2023-11-22T13:58:51;8.00;41.90
26035;DHT22;13809;48.632;11.576;2023-11-22T14:03:56;8.00;41.80
26035;DHT22;13809;48.632;11.576;2023-11-22T14:08:59;8.00;41.60
26035;DHT22;13809;48.632;11.576;2023-11-22T14:14:02;8.00;41.60
26035;DHT22;13809;48.632;11.576;2023-11-22T14:19:07;8.00;41.40
26035;DHT22;13809;48.632;11.576;2023-11-22T14:24:11;8.00;41.20
26035;DHT22;13809;48.632;11.576;2023-11-22T14:29:14;8.00;41.30
26035;DHT22;13809;48.632;11.576;2023-11-22T14:34:19;8.00;41.30
26035;DHT22;13809;48.632;11.576;2023-11-22T14:39:22;8.00;41.80
26035;DHT22;13809;48.632;11.576;2023-11-22T14:44:25;8.00;41.60
26035;DHT22;13809;48.632;11.576;2023-11-22T14:49:30;8.10;41.50
26035;DHT22;13809;48.632;11.576;2023-11-22T14:54:46;8.10;41.50
26035;DHT22;13809;48.632;11.576;2023-11-22T14:59:50;8.10;41.70
26035;DHT22;13809;48.632;11.576;2023-11-22T15:04:54;8.10;41.60
26035;DHT22;13809;48.632;11.576;2023-11-22T15:09:58;8.10;41.30
26035;DHT22;13809;48.632;11.576;2023-11-22T15:15:01;8.10;41.60
26035;DHT22;13809;48.632;11.576;2023-11-22T15:20:07;8.10;41.30
26035;DHT22;13809;48.632;11.576;2023-11-22T15:25:12;8.00;40.90
26035;DHT22;13809;48.632;11.576;2023-11-22T15:30:17;8.00;41.00
26035;DHT22;13809;48.632;11.576;2023-11-22T15:35:22;8.00;41.20
26035;DHT22;13809;48.632;11.576;2023-11-22T15:40:26;7.90;41.10
26035;DHT22;13809;48.632;11.576;2023-11-22T15:45:29;7.90;41.10
26035;DHT22;13809;48.632;11.576;2023-11-22T15:50:34;7.90;41.10
26035;DHT22;13809;48.632;11.576;2023-11-22T15:55:38;7.90;41.10
26035;DHT22;13809;48.632;11.576;2023-11-22T16:00:42;7.90;41.20
26035;DHT22;13809;48.632;11.576;2023-11-22T16:05:47;7.90;41.20
26035;DHT22;13809;48.632;11.576;2023-11-22T16:10:51;7.90;41.10
26035;DHT22;13809;48.632;11.576;2023-11-22T16:15:54;7.90;41.20
26035;DHT22;13809;48.632;11.576;2023-11-22T16:21:03;7.80;41.30
26035;DHT22;13809;48.632;11.576;2023-11-22T16:26:06;7.80;41.30
26035;DHT22;13809;48.632;11.576;2023-11-22T16:31:10;7.80;41.40
26035;DHT22;13809;48.632;11.576;2023-11-22T16:36:17;7.80;41.50
26035;DHT22;13809;48.632;11.576;2023-11-22T16:41:23;7.80;41.50
26035;DHT22;13809;48.632;11.576;2023-11-22T16:46:27;7.80;42.20
26035;DHT22;13809;48.632;11.576;2023-11-22T16:51:32;7.80;41.60
26035;DHT22;13809;48.632;11.576;2023-11-22T16:56:35;7.80;41.50
26035;DHT22;13809;48.632;11.576;2023-11-22T17:01:39;7.80;41.50
26035;DHT22;13809;48.632;11.576;2023-11-22T17:06:44;7.90;41.50
26035;DHT22;13809;48.632;11.576;2023-11-22T17:11:47;7.90;41.40
26035;DHT22;13809;48.632;11.576;2023-11-22T17:16:50;7.90;41.60
26035;DHT22;13809;48.632;11.576;2023-11-22T17:21:55;7.90;41.50
26035;DHT22;13809;48.632;11.576;2023-11-22T17:26:58;7.90;41.30
26035;DHT22;13809;48.632;11.576;2023-11-22T17:32:01;8.00;41.50
26035;DHT22;13809;48.632;11.576;2023-11-22T17:37:06;8.00;41.50
26035;DHT22;13809;48.632;11.576;2023-11-22T17:42:10;8.00;41.30
26035;DHT22;13809;48.632;11.576;2023-11-22T17:47:13;8.00;41.40
26035;DHT22;13809;48.632;11.576;2023-11-22T17:52:18;8.00;41.40
26035;DHT22;13809;48.632;11.576;2023-11-22T17:57:21;8.00;41.30
26035;DHT22;13809;48.632;11.576;2023-11-22T18:02:24;8.00;41.50
26035;DHT22;13809;48.632;11.576;2023-11-22T18:07:29;8.00;41.50
26035;DHT22;13809;48.632;11.576;2023-11-22T18:12:32;8.00;41.20
26035;DHT22;13809;48.632;11.576;2023-11-22T18:17:36;8.00;41.20
26035;DHT22;13809;48.632;11.576;2023-11-22T18:22:40;8.00;41.30
26035;DHT22;13809;48.632;11.576;2023-11-22T18:27:43;8.00;41.30
26035;DHT22;13809;48.632;11.576;2023-11-22T18:32:46;8.00;41.40
26035;DHT22;13809;48.632;11.576;2023-11-22T18:37:51;8.00;41.50
26035;DHT22;13809;48.632;11.576;2023-11-22T18:42:54;8.00;41.30
26035;DHT22;13809;48.632;11.576;2023-11-22T18:47:57;8.00;41.30
26035;DHT22;13809;48.632;11.576;2023-11-22T18:53:03;8.00;41.20
26035;DHT22;13809;48.632;11.576;2023-11-22T18:58:06;8.00;41.10
26035;DHT22;13809;48.632;11.576;2023-11-22T19:03:10;8.00;41.20
26035;DHT22;13809;48.632;11.576;2023-11-22T19:08:15;8.00;42.10
26035;DHT22;13809;48.632;11.576;2023-11-22T19:13:18;7.90;41.20
26035;DHT22;13809;48.632;11.576;2023-11-22T19:18:22;7.90;41.50
26035;DHT22;13809;48.632;11.576;2023-11-22T19:23:27;7.90;41.50
26035;DHT22;13809;48.632;11.576;2023-11-22T19:28:30;7.90;41.30
26035;DHT22;13809;48.632;11.576;2023-11-22T19:33:35;7.90;41.40
26035;DHT22;13809;48.632;11.576;2023-11-22T19:38:40;7.80;41.30
26035;DHT22;13809;48.632;11.576;2023-11-22T19:43:44;7.70;41.40
26035;DHT22;13809;48.632;11.576;2023-11-22T19:48:47;7.60;41.70
26035;DHT22;13809;48.632;11.576;2023-11-22T19:53:52;7.50;41.80
26035;DHT22;13809;48.632;11.576;2023-11-22T19:58:56;7.50;41.80
26035;DHT22;13809;48.632;11.576;2023-11-22T20:04:00;7.50;42.00
26035;DHT22;13809;48.632;11.576;2023-11-22T20:09:05;7.50;42.00
26035;DHT22;13809;48.632;11.576;2023-11-22T20:14:08;7.40;41.70
26035;DHT22;13809;48.632;11.576;2023-11-22T20:19:12;7.50;42.00
26035;DHT22;13809;48.632;11.576;2023-11-22T20:24:16;7.50;43.60
26035;DHT22;13809;48.632;11.576;2023-11-22T20:29:20;7.60;42.70
26035;DHT22;13809;48.632;11.576;2023-11-22T20:34:23;7.70;42.30
26035;DHT22;13809;48.632;11.576;2023-11-22T20:39:28;7.80;42.00
26035;DHT22;13809;48.632;11.576;2023-11-22T20:44:31;7.80;41.80
26035;DHT22;13809;48.632;11.576;2023-11-22T20:49:35;7.80;41.90
26035;DHT22;13809;48.632;11.576;2023-11-22T20:54:40;7.80;41.80
26035;DHT22;13809;48.632;11.576;2023-11-22T20:59:44;7.70;41.80
26035;DHT22;13809;48.632;11.576;2023-11-22T21:04:47;7.60;41.90
26035;DHT22;13809;48.632;11.576;2023-11-22T21:09:51;7.60;42.00
26035;DHT22;13809;48.632;11.576;2023-11-22T21:14:55;7.40;42.00
26035;DHT22;13809;48.632;11.576;2023-11-22T21:20:00;7.40;42.10
26035;DHT22;13809;48.632;11.576;2023-11-22T21:25:10;7.40;42.00
26035;DHT22;13809;48.632;11.576;2023-11-22T21:30:13;7.40;41.80
26035;DHT22;13809;48.632;11.576;2023-11-22T21:35:17;7.40;41.90
26035;DHT22;13809;48.632;11.576;2023-11-22T21:40:22;7.40;41.90
26035;DHT22;13809;48.632;11.576;2023-11-22T21:45:25;7.40;41.80
26035;DHT22;13809;48.632;11.576;2023-11-22T21:50:28;7.30;41.70
26035;DHT22;13809;48.632;11.576;2023-11-22T21:55:33;7.30;41.70
26035;DHT22;13809;48.632;11.576;2023-11-22T22:00:36;7.30;41.40
26035;DHT22;13809;48.632;11.576;2023-11-22T22:05:39;7.30;41.40
26035;DHT22;13809;48.632;11.576;2023-11-22T22:10:48;7.30;41.60
26035;DHT22;13809;48.632;11.576;2023-11-22T22:15:51;7.30;41.30
26035;DHT22;13809;48.632;11.576;2023-11-22T22:20:58;7.30;41.40
26035;DHT22;13809;48.632;11.576;2023-11-22T22:26:04;7.20;41.10
26035;DHT22;13809;48.632;11.576;2023-11-22T22:31:07;7.20;41.20
26035;DHT22;13809;48.632;11.576;2023-11-22T22:36:15;7.20;41.50
26035;DHT22;13809;48.632;11.576;2023-11-22T22:41:21;7.20;41.20
26035;DHT22;13809;48.632;11.576;2023-11-22T22:46:25;7.10;41.40
26035;DHT22;13809;48.632;11.576;2023-11-22T22:51:29;7.10;41.30
26035;DHT22;13809;48.632;11.576;2023-11-22T22:56:35;7.00;41.20
26035;DHT22;13809;48.632;11.576;2023-11-22T23:01:38;6.90;41.00
26035;DHT22;13809;48.632;11.576;2023-11-22T23:06:41;6.90;41.30
26035;DHT22;13809;48.632;11.576;2023-11-22T23:11:46;6.90;41.10
26035;DHT22;13809;48.632;11.576;2023-11-22T23:16:49;6.90;41.40
26035;DHT22;13809;48.632;11.576;2023-11-22T23:21:53;6.90;41.40
26035;DHT22;13809;48.632;11.576;2023-11-22T23:26:58;6.90;41.10
26035;DHT22;13809;48.632;11.576;2023-11-22T23:32:02;6.90;41.10
26035;DHT22;13809;48.632;11.576;2023-11-22T23:37:07;6.90;41.10
26035;DHT22;13809;48.632;11.576;2023-11-22T23:42:11;6.90;41.30
26035;DHT22;13809;48.632;11.576;2023-11-22T23:47:16;6.90;41.20
26035;DHT22;13809;48.632;11.576;2023-11-22T23:52:20;6.90;41.10
26035;DHT22;13809;48.632;11.576;2023-11-22T23:57:25;6.80;41.10
